createdAt,value
2018-03-25T00:00:42.273Z,17.85
2018-03-25T00:01:42.277Z,17.83
2018-03-25T00:02:42.240Z,17.83
2018-03-25T00:03:42.254Z,17.82
2018-03-25T00:04:42.255Z,17.84
2018-03-25T00:05:42.279Z,17.83
2018-03-25T00:06:42.297Z,17.81
2018-03-25T00:07:42.256Z,17.83
2018-03-25T00:08:42.247Z,17.79
2018-03-25T00:09:42.258Z,17.82
2018-03-25T00:10:42.267Z,17.83
2018-03-25T00:11:42.286Z,17.81
2018-03-25T00:12:42.276Z,17.79
2018-03-25T00:13:42.239Z,17.81
2018-03-25T00:14:42.307Z,17.79
2018-03-25T00:15:42.257Z,17.79
2018-03-25T00:16:42.282Z,17.79
2018-03-25T00:17:42.321Z,17.79
2018-03-25T00:18:42.263Z,17.78
2018-03-25T00:19:42.254Z,17.78
2018-03-25T00:20:42.318Z,17.78
2018-03-25T00:21:42.281Z,17.77
2018-03-25T00:22:42.240Z,17.76
2018-03-25T00:23:42.293Z,17.78
2018-03-25T00:24:42.257Z,17.76
2018-03-25T00:25:42.301Z,17.75
2018-03-25T00:26:42.291Z,17.76
2018-03-25T00:27:42.520Z,17.74
2018-03-25T00:28:42.250Z,17.74
2018-03-25T00:29:42.243Z,17.75
2018-03-25T00:30:42.305Z,17.75
2018-03-25T00:31:42.533Z,17.73
2018-03-25T00:32:42.283Z,17.73
2018-03-25T00:33:42.244Z,17.73
2018-03-25T00:34:42.303Z,17.72
2018-03-25T00:35:42.270Z,17.72
2018-03-25T00:36:42.278Z,17.69
2018-03-25T00:37:42.303Z,17.7
2018-03-25T00:38:42.242Z,17.69
2018-03-25T00:39:42.240Z,17.7
2018-03-25T00:40:42.281Z,17.7
2018-03-25T00:41:42.288Z,17.69
2018-03-25T00:42:42.279Z,17.68
2018-03-25T00:43:42.245Z,17.67
2018-03-25T00:44:42.226Z,17.66
2018-03-25T00:45:42.257Z,17.65
2018-03-25T00:46:42.239Z,17.65
2018-03-25T00:47:42.291Z,17.66
2018-03-25T00:48:42.276Z,17.66
2018-03-25T00:49:42.245Z,17.66
2018-03-25T00:50:42.467Z,17.65
2018-03-25T00:51:42.234Z,17.63
2018-03-25T00:52:42.238Z,17.63
2018-03-25T00:53:42.330Z,17.63
2018-03-25T00:54:42.277Z,17.64
2018-03-25T00:55:42.260Z,17.63
2018-03-25T00:56:42.238Z,17.63
2018-03-25T00:57:42.313Z,17.62
2018-03-25T00:58:42.245Z,17.62
2018-03-25T00:59:42.243Z,17.62
2018-03-25T01:00:42.251Z,17.62
2018-03-25T01:01:42.511Z,17.62
2018-03-25T01:02:42.273Z,17.6
2018-03-25T01:03:42.245Z,17.6
2018-03-25T01:04:42.255Z,17.6
2018-03-25T01:05:42.245Z,17.59
2018-03-25T01:06:42.278Z,17.6
2018-03-25T01:07:42.467Z,17.56
2018-03-25T01:08:42.280Z,17.6
2018-03-25T01:09:42.235Z,17.58
2018-03-25T01:10:42.248Z,17.58
2018-03-25T01:11:42.274Z,17.56
2018-03-25T01:12:46.105Z,17.59
2018-03-25T01:13:42.264Z,17.59
2018-03-25T01:14:42.305Z,17.55
2018-03-25T01:15:42.249Z,17.58
2018-03-25T01:16:42.261Z,17.58
2018-03-25T01:17:42.252Z,17.56
2018-03-25T01:18:42.299Z,17.56
2018-03-25T01:19:42.365Z,17.54
2018-03-25T01:20:42.256Z,17.54
2018-03-25T01:21:42.312Z,17.53
2018-03-25T01:22:42.282Z,17.55
2018-03-25T01:23:42.273Z,17.54
2018-03-25T01:24:42.282Z,17.55
2018-03-25T01:25:42.238Z,17.54
2018-03-25T01:26:42.298Z,17.53
2018-03-25T01:27:42.303Z,17.53
2018-03-25T01:28:42.277Z,17.52
2018-03-25T01:29:42.282Z,17.53
2018-03-25T01:30:42.280Z,17.55
2018-03-25T01:31:42.358Z,17.53
2018-03-25T01:32:42.279Z,17.51
2018-03-25T01:33:42.240Z,17.51
2018-03-25T01:34:42.243Z,17.52
2018-03-25T01:35:42.257Z,17.52
2018-03-25T01:36:42.286Z,17.53
2018-03-25T01:37:42.276Z,17.53
2018-03-25T01:38:42.278Z,17.52
2018-03-25T01:39:42.284Z,17.52
2018-03-25T01:40:42.272Z,17.53
2018-03-25T01:41:42.272Z,17.53
2018-03-25T01:42:42.252Z,17.5
2018-03-25T01:43:42.262Z,17.5
2018-03-25T01:44:42.299Z,17.5
2018-03-25T01:45:42.263Z,17.51
2018-03-25T01:46:42.275Z,17.5
2018-03-25T01:47:42.245Z,17.5
2018-03-25T01:48:42.292Z,17.47
2018-03-25T01:49:42.362Z,17.48
2018-03-25T01:50:42.249Z,17.51
2018-03-25T01:51:42.264Z,17.48
2018-03-25T01:52:42.275Z,17.49
2018-03-25T01:53:42.251Z,17.47
2018-03-25T01:54:42.332Z,17.47
2018-03-25T01:55:42.391Z,17.48
2018-03-25T01:56:42.277Z,17.47
2018-03-25T01:57:42.246Z,17.47
2018-03-25T01:58:42.258Z,17.49
2018-03-25T01:59:42.247Z,17.47
2018-03-25T02:00:42.238Z,17.45
2018-03-25T02:01:42.270Z,17.46
2018-03-25T02:02:42.272Z,17.45
2018-03-25T02:03:42.237Z,17.47
2018-03-25T02:04:42.224Z,17.45
2018-03-25T02:05:42.242Z,17.45
2018-03-25T02:06:42.228Z,17.45
2018-03-25T02:07:42.256Z,17.44
2018-03-25T02:08:42.271Z,17.41
2018-03-25T02:09:42.270Z,17.43
2018-03-25T02:10:42.232Z,17.45
2018-03-25T02:11:42.247Z,17.43
2018-03-25T02:12:42.278Z,17.45
2018-03-25T02:13:42.267Z,17.41
2018-03-25T02:14:42.248Z,17.44
2018-03-25T02:15:42.273Z,17.41
2018-03-25T02:16:42.276Z,17.43
2018-03-25T02:17:42.265Z,17.43
2018-03-25T02:18:42.312Z,17.44
2018-03-25T02:19:42.261Z,17.39
2018-03-25T02:20:42.317Z,17.4
2018-03-25T02:21:42.230Z,17.4
2018-03-25T02:22:42.279Z,17.41
2018-03-25T02:23:42.265Z,17.39
2018-03-25T02:24:42.253Z,17.39
2018-03-25T02:25:42.265Z,17.38
2018-03-25T02:26:42.282Z,17.39
2018-03-25T02:27:42.261Z,17.4
2018-03-25T02:28:42.272Z,17.37
2018-03-25T02:29:42.238Z,17.37
2018-03-25T02:30:42.243Z,17.36
2018-03-25T02:31:42.259Z,17.37
2018-03-25T02:32:42.512Z,17.37
2018-03-25T02:33:42.293Z,17.37
2018-03-25T02:34:42.268Z,17.35
2018-03-25T02:35:42.238Z,17.37
2018-03-25T02:36:42.262Z,17.37
2018-03-25T02:37:42.258Z,17.36
2018-03-25T02:38:42.278Z,17.33
2018-03-25T02:39:42.236Z,17.36
2018-03-25T02:40:42.280Z,17.35
2018-03-25T02:41:42.266Z,17.36
2018-03-25T02:42:42.270Z,17.35
2018-03-25T02:43:42.316Z,17.34
2018-03-25T02:44:42.253Z,17.34
2018-03-25T02:45:42.249Z,17.34
2018-03-25T02:46:42.236Z,17.34
2018-03-25T02:47:42.259Z,17.35
2018-03-25T02:48:42.328Z,17.32
2018-03-25T02:49:42.296Z,17.33
2018-03-25T02:50:42.283Z,17.32
2018-03-25T02:51:42.330Z,17.32
2018-03-25T02:52:42.219Z,17.32
2018-03-25T02:53:42.326Z,17.31
2018-03-25T02:54:42.381Z,17.31
2018-03-25T02:55:42.298Z,17.33
2018-03-25T02:56:42.262Z,17.32
2018-03-25T02:57:42.252Z,17.3
2018-03-25T02:58:42.302Z,17.3
2018-03-25T02:59:42.261Z,17.32
2018-03-25T03:00:42.254Z,17.31
2018-03-25T03:01:42.266Z,17.3
2018-03-25T03:02:42.279Z,17.29
2018-03-25T03:03:42.235Z,17.3
2018-03-25T03:04:42.273Z,17.28
2018-03-25T03:05:42.253Z,17.29
2018-03-25T03:06:42.249Z,17.28
2018-03-25T03:07:42.206Z,17.29
2018-03-25T03:08:42.246Z,17.25
2018-03-25T03:09:42.232Z,17.29
2018-03-25T03:10:42.273Z,17.28
2018-03-25T03:11:42.242Z,17.26
2018-03-25T03:12:42.260Z,17.25
2018-03-25T03:13:42.226Z,17.25
2018-03-25T03:14:42.248Z,17.25
2018-03-25T03:15:42.227Z,17.25
2018-03-25T03:16:42.253Z,17.25
2018-03-25T03:17:42.228Z,17.25
2018-03-25T03:18:42.250Z,17.25
2018-03-25T03:19:42.230Z,17.25
2018-03-25T03:20:42.264Z,17.25
2018-03-25T03:21:42.247Z,17.23
2018-03-25T03:22:42.285Z,17.23
2018-03-25T03:23:42.264Z,17.24
2018-03-25T03:24:42.269Z,17.22
2018-03-25T03:25:42.204Z,17.21
2018-03-25T03:26:42.239Z,17.23
2018-03-25T03:27:42.236Z,17.22
2018-03-25T03:28:42.326Z,17.23
2018-03-25T03:29:42.212Z,17.24
2018-03-25T03:30:42.285Z,17.22
2018-03-25T03:31:42.255Z,17.23
2018-03-25T03:32:42.237Z,17.21
2018-03-25T03:33:42.231Z,17.19
2018-03-25T03:34:42.250Z,17.21
2018-03-25T03:35:42.234Z,17.2
2018-03-25T03:36:42.236Z,17.21
2018-03-25T03:37:42.201Z,17.21
2018-03-25T03:38:42.263Z,17.2
2018-03-25T03:39:42.202Z,17.21
2018-03-25T03:40:42.200Z,17.22
2018-03-25T03:41:42.211Z,17.21
2018-03-25T03:42:42.198Z,17.2
2018-03-25T03:43:42.250Z,17.19
2018-03-25T03:44:42.236Z,17.19
2018-03-25T03:45:42.202Z,17.19
2018-03-25T03:46:42.217Z,17.17
2018-03-25T03:47:42.265Z,17.18
2018-03-25T03:48:42.233Z,17.16
2018-03-25T03:49:42.238Z,17.16
2018-03-25T03:50:42.218Z,17.17
2018-03-25T03:51:42.218Z,17.16
2018-03-25T03:52:42.186Z,17.15
2018-03-25T03:53:42.312Z,17.17
2018-03-25T03:54:42.239Z,17.16
2018-03-25T03:55:42.318Z,17.16
2018-03-25T03:56:42.318Z,17.15
2018-03-25T03:57:42.243Z,17.17
2018-03-25T03:58:42.223Z,17.19
2018-03-25T03:59:42.224Z,17.19
2018-03-25T04:00:42.193Z,17.19
2018-03-25T04:01:42.161Z,17.2
2018-03-25T04:02:42.196Z,17.19
2018-03-25T04:03:42.217Z,17.2
2018-03-25T04:04:42.286Z,17.21
2018-03-25T04:05:42.227Z,17.22
2018-03-25T04:06:42.232Z,17.21
2018-03-25T04:07:42.221Z,17.24
2018-03-25T04:08:42.198Z,17.28
2018-03-25T04:09:42.250Z,17.24
2018-03-25T04:10:42.233Z,17.28
2018-03-25T04:11:42.224Z,17.29
2018-03-25T04:12:42.227Z,17.26
2018-03-25T04:13:42.234Z,17.29
2018-03-25T04:14:42.232Z,17.32
2018-03-25T04:15:42.221Z,17.33
2018-03-25T04:16:42.218Z,17.35
2018-03-25T04:17:42.209Z,17.35
2018-03-25T04:18:42.269Z,17.35
2018-03-25T04:19:42.241Z,17.37
2018-03-25T04:20:42.364Z,17.39
2018-03-25T04:21:42.245Z,17.39
2018-03-25T04:22:42.200Z,17.44
2018-03-25T04:23:42.229Z,17.45
2018-03-25T04:24:42.285Z,17.46
2018-03-25T04:25:42.245Z,17.47
2018-03-25T04:26:42.213Z,17.5
2018-03-25T04:27:42.228Z,17.5
2018-03-25T04:28:42.222Z,17.52
2018-03-25T04:29:42.201Z,17.55
2018-03-25T04:30:42.232Z,17.53
2018-03-25T04:31:42.219Z,17.56
2018-03-25T04:32:42.216Z,17.61
2018-03-25T04:33:42.205Z,17.6
2018-03-25T04:34:42.221Z,17.59
2018-03-25T04:35:42.209Z,17.63
2018-03-25T04:36:42.244Z,17.63
2018-03-25T04:37:42.209Z,17.66
2018-03-25T04:38:42.207Z,17.66
2018-03-25T04:39:42.216Z,17.68
2018-03-25T04:40:42.190Z,17.69
2018-03-25T04:41:42.203Z,17.72
2018-03-25T04:42:42.181Z,17.72
2018-03-25T04:43:42.203Z,17.74
2018-03-25T04:44:42.203Z,17.73
2018-03-25T04:45:42.206Z,17.74
2018-03-25T04:46:42.210Z,17.77
2018-03-25T04:47:42.228Z,17.79
2018-03-25T04:48:42.229Z,17.79
2018-03-25T04:49:42.236Z,17.8
2018-03-25T04:50:42.216Z,17.82
2018-03-25T04:51:42.202Z,17.84
2018-03-25T04:52:42.219Z,17.84
2018-03-25T04:53:42.177Z,17.88
2018-03-25T04:54:42.227Z,17.83
2018-03-25T04:55:42.274Z,17.88
2018-03-25T04:56:42.191Z,17.91
2018-03-25T04:57:42.179Z,17.88
2018-03-25T04:58:42.227Z,17.93
2018-03-25T04:59:42.189Z,17.91
2018-03-25T05:00:42.198Z,17.92
2018-03-25T05:01:42.219Z,17.95
2018-03-25T05:02:42.258Z,17.97
2018-03-25T05:03:42.227Z,17.96
2018-03-25T05:04:42.217Z,17.97
2018-03-25T05:05:42.197Z,17.99
2018-03-25T05:06:42.217Z,17.99
2018-03-25T05:07:42.218Z,17.99
2018-03-25T05:08:42.184Z,18.02
2018-03-25T05:09:42.207Z,17.99
2018-03-25T05:10:42.199Z,18.03
2018-03-25T05:11:42.192Z,18.05
2018-03-25T05:12:42.199Z,18.04
2018-03-25T05:13:42.215Z,18.04
2018-03-25T05:14:42.193Z,18.08
2018-03-25T05:15:42.227Z,18.08
2018-03-25T05:16:42.187Z,18.09
2018-03-25T05:17:42.212Z,18.11
2018-03-25T05:18:42.201Z,18.1
2018-03-25T05:19:42.184Z,18.11
2018-03-25T05:20:42.214Z,18.12
2018-03-25T05:21:42.212Z,18.13
2018-03-25T05:22:42.215Z,18.13
2018-03-25T05:23:42.188Z,18.14
2018-03-25T05:24:42.217Z,18.13
2018-03-25T05:25:42.222Z,18.18
2018-03-25T05:26:42.240Z,18.18
2018-03-25T05:27:42.187Z,18.17
2018-03-25T05:28:42.186Z,18.18
2018-03-25T05:29:42.175Z,18.19
2018-03-25T05:30:42.176Z,18.21
2018-03-25T05:31:42.189Z,18.22
2018-03-25T05:32:42.199Z,18.21
2018-03-25T05:33:42.199Z,18.22
2018-03-25T05:34:42.220Z,18.21
2018-03-25T05:35:42.185Z,18.24
2018-03-25T05:36:42.184Z,18.22
2018-03-25T05:37:42.185Z,18.26
2018-03-25T05:38:42.163Z,18.26
2018-03-25T05:39:42.196Z,18.26
2018-03-25T05:40:42.224Z,18.26
2018-03-25T05:41:42.176Z,18.28
2018-03-25T05:42:42.179Z,18.26
2018-03-25T05:43:42.187Z,18.29
2018-03-25T05:44:42.175Z,18.3
2018-03-25T05:45:42.194Z,18.29
2018-03-25T05:46:42.197Z,18.29
2018-03-25T05:47:42.172Z,18.32
2018-03-25T05:48:42.197Z,18.33
2018-03-25T05:49:42.205Z,18.33
2018-03-25T05:50:42.178Z,18.35
2018-03-25T05:51:42.206Z,18.33
2018-03-25T05:52:42.207Z,18.36
2018-03-25T05:53:42.176Z,18.35
2018-03-25T05:54:42.209Z,18.37
2018-03-25T05:55:42.158Z,18.37
2018-03-25T05:56:42.289Z,18.37
2018-03-25T05:57:42.308Z,18.36
2018-03-25T05:58:42.126Z,18.4
2018-03-25T05:59:42.194Z,18.39
2018-03-25T06:00:42.156Z,18.37
2018-03-25T06:01:42.195Z,18.39
2018-03-25T06:02:42.163Z,18.4
2018-03-25T06:03:42.219Z,18.38
2018-03-25T06:04:42.261Z,18.41
2018-03-25T06:05:42.179Z,18.43
2018-03-25T06:06:42.168Z,18.41
2018-03-25T06:07:42.178Z,18.41
2018-03-25T06:08:42.246Z,18.43
2018-03-25T06:09:42.197Z,18.43
2018-03-25T06:10:42.200Z,18.43
2018-03-25T06:11:42.214Z,18.46
2018-03-25T06:12:42.206Z,18.46
2018-03-25T06:13:42.186Z,18.44
2018-03-25T06:14:42.153Z,18.47
2018-03-25T06:15:42.174Z,18.44
2018-03-25T06:16:42.210Z,18.44
2018-03-25T06:17:42.137Z,18.44
2018-03-25T06:18:42.190Z,18.46
2018-03-25T06:19:42.216Z,18.46
2018-03-25T06:20:42.199Z,18.44
2018-03-25T06:21:42.187Z,18.47
2018-03-25T06:22:42.175Z,18.49
2018-03-25T06:23:42.176Z,18.49
2018-03-25T06:24:42.166Z,18.47
2018-03-25T06:25:42.144Z,18.49
2018-03-25T06:26:42.200Z,18.5
2018-03-25T06:27:42.147Z,18.49
2018-03-25T06:28:42.180Z,18.49
2018-03-25T06:29:42.223Z,18.5
2018-03-25T06:30:42.138Z,18.49
2018-03-25T06:31:42.181Z,18.51
2018-03-25T06:32:42.185Z,18.51
2018-03-25T06:33:42.144Z,18.5
2018-03-25T06:34:42.175Z,18.52
2018-03-25T06:35:42.174Z,18.51
2018-03-25T06:36:42.159Z,18.52
2018-03-25T06:37:42.174Z,18.53
2018-03-25T06:38:42.174Z,18.53
2018-03-25T06:39:42.212Z,18.53
2018-03-25T06:40:42.204Z,18.54
2018-03-25T06:41:42.156Z,18.54
2018-03-25T06:42:42.185Z,18.52
2018-03-25T06:43:42.167Z,18.54
2018-03-25T06:44:42.219Z,18.57
2018-03-25T06:45:42.150Z,18.54
2018-03-25T06:46:42.165Z,18.55
2018-03-25T06:47:42.180Z,18.55
2018-03-25T06:48:42.139Z,18.56
2018-03-25T06:49:42.167Z,18.57
2018-03-25T06:50:42.148Z,18.56
2018-03-25T06:51:42.184Z,18.56
2018-03-25T06:52:42.188Z,18.58
2018-03-25T06:53:42.157Z,18.59
2018-03-25T06:54:42.174Z,18.56
2018-03-25T06:55:42.172Z,18.61
2018-03-25T06:56:42.176Z,18.61
2018-03-25T06:57:42.145Z,18.59
2018-03-25T06:58:42.137Z,18.58
2018-03-25T06:59:42.225Z,18.62
2018-03-25T07:00:42.165Z,18.59
2018-03-25T07:01:42.128Z,18.61
2018-03-25T07:02:42.197Z,18.62
2018-03-25T07:03:42.173Z,18.58
2018-03-25T07:04:42.179Z,18.61
2018-03-25T07:05:42.189Z,18.64
2018-03-25T07:06:42.143Z,18.59
2018-03-25T07:07:42.162Z,18.63
2018-03-25T07:08:42.507Z,18.63
2018-03-25T07:09:42.194Z,18.62
2018-03-25T07:10:42.133Z,18.62
2018-03-25T07:11:42.187Z,18.64
2018-03-25T07:12:42.156Z,18.63
2018-03-25T07:13:42.162Z,18.63
2018-03-25T07:14:42.217Z,18.66
2018-03-25T07:15:42.194Z,18.66
2018-03-25T07:16:42.174Z,18.65
2018-03-25T07:17:42.235Z,18.66
2018-03-25T07:18:42.147Z,18.64
2018-03-25T07:19:42.122Z,18.66
2018-03-25T07:20:42.166Z,18.67
2018-03-25T07:21:42.164Z,18.63
2018-03-25T07:22:42.165Z,18.67
2018-03-25T07:23:42.151Z,18.69
2018-03-25T07:24:42.146Z,18.67
2018-03-25T07:25:42.212Z,18.67
2018-03-25T07:26:42.139Z,18.69
2018-03-25T07:27:42.178Z,18.67
2018-03-25T07:28:42.156Z,18.69
2018-03-25T07:29:42.168Z,18.69
2018-03-25T07:30:42.209Z,18.69
2018-03-25T07:31:42.175Z,18.71
2018-03-25T07:32:42.163Z,18.71
2018-03-25T07:33:42.161Z,18.7
2018-03-25T07:34:42.210Z,18.71
2018-03-25T07:35:42.141Z,18.71
2018-03-25T07:36:42.182Z,18.7
2018-03-25T07:37:42.490Z,18.72
2018-03-25T07:38:42.154Z,18.72
2018-03-25T07:39:42.119Z,18.71
2018-03-25T07:40:42.155Z,18.7
2018-03-25T07:41:42.185Z,18.73
2018-03-25T07:42:42.171Z,18.73
2018-03-25T07:43:42.143Z,18.74
2018-03-25T07:44:42.157Z,18.74
2018-03-25T07:45:42.152Z,18.73
2018-03-25T07:46:42.232Z,18.74
2018-03-25T07:47:42.143Z,18.76
2018-03-25T07:48:42.186Z,18.73
2018-03-25T07:49:42.166Z,18.73
2018-03-25T07:50:42.132Z,18.76
2018-03-25T07:51:42.146Z,18.77
2018-03-25T07:52:42.118Z,18.78
2018-03-25T07:53:42.150Z,18.77
2018-03-25T07:54:42.154Z,18.76
2018-03-25T07:55:42.148Z,18.78
2018-03-25T07:56:42.158Z,18.77
2018-03-25T07:57:42.221Z,18.77
2018-03-25T07:58:42.258Z,18.77
2018-03-25T07:59:42.133Z,18.81
2018-03-25T08:00:42.167Z,18.77
2018-03-25T08:01:42.179Z,18.78
2018-03-25T08:02:42.140Z,18.81
2018-03-25T08:03:42.112Z,18.77
2018-03-25T08:04:42.167Z,18.79
2018-03-25T08:05:42.130Z,18.78
2018-03-25T08:06:42.140Z,18.79
2018-03-25T08:07:42.156Z,18.82
2018-03-25T08:08:42.134Z,18.82
2018-03-25T08:09:42.156Z,18.79
2018-03-25T08:10:42.103Z,18.83
2018-03-25T08:11:42.133Z,18.81
2018-03-25T08:12:42.166Z,18.8
2018-03-25T08:13:42.184Z,18.82
2018-03-25T08:14:42.136Z,18.84
2018-03-25T08:15:42.102Z,18.81
2018-03-25T08:16:42.149Z,18.82
2018-03-25T08:17:42.141Z,18.83
2018-03-25T08:18:42.140Z,18.82
2018-03-25T08:19:42.149Z,18.83
2018-03-25T08:20:42.227Z,18.84
2018-03-25T08:21:42.694Z,18.82
2018-03-25T08:22:42.192Z,18.84
2018-03-25T08:23:42.253Z,18.84
2018-03-25T08:24:42.149Z,18.83
2018-03-25T08:25:42.109Z,18.84
2018-03-25T08:26:42.136Z,18.84
2018-03-25T08:27:42.099Z,18.8
2018-03-25T08:28:42.142Z,18.83
2018-03-25T08:29:42.182Z,18.85
2018-03-25T08:30:42.136Z,18.81
2018-03-25T08:31:42.169Z,18.83
2018-03-25T08:32:42.151Z,18.84
2018-03-25T08:33:42.137Z,18.81
2018-03-25T08:34:42.153Z,18.83
2018-03-25T08:35:42.215Z,18.83
2018-03-25T08:36:42.131Z,18.82
2018-03-25T08:37:42.111Z,18.82
2018-03-25T08:38:42.219Z,18.83
2018-03-25T08:39:42.135Z,18.83
2018-03-25T08:40:42.125Z,18.82
2018-03-25T08:41:42.146Z,18.83
2018-03-25T08:42:42.105Z,18.81
2018-03-25T08:43:42.119Z,18.84
2018-03-25T08:44:42.138Z,18.83
2018-03-25T08:45:42.228Z,18.8
2018-03-25T08:46:42.131Z,18.63
2018-03-25T08:47:42.152Z,18.49
2018-03-25T08:48:42.102Z,18.38
2018-03-25T08:49:42.103Z,18.24
2018-03-25T08:50:42.119Z,18.08
2018-03-25T08:51:42.142Z,17.97
2018-03-25T08:52:42.096Z,17.89
2018-03-25T08:53:42.152Z,17.83
2018-03-25T08:54:42.093Z,17.73
2018-03-25T08:55:42.321Z,17.64
2018-03-25T08:56:42.135Z,17.54
2018-03-25T08:57:42.191Z,17.49
2018-03-25T08:58:42.120Z,17.45
2018-03-25T08:59:42.135Z,17.48
2018-03-25T09:00:42.143Z,17.51
2018-03-25T09:01:42.203Z,17.58
2018-03-25T09:02:42.146Z,17.64
2018-03-25T09:03:42.119Z,17.65
2018-03-25T09:04:42.153Z,17.73
2018-03-25T09:05:42.165Z,17.77
2018-03-25T09:06:42.168Z,17.8
2018-03-25T09:07:42.144Z,17.85
2018-03-25T09:08:42.141Z,17.89
2018-03-25T09:09:42.130Z,17.94
2018-03-25T09:10:42.087Z,17.96
2018-03-25T09:11:42.178Z,17.99
2018-03-25T09:12:42.084Z,18.03
2018-03-25T09:13:42.149Z,18.06
2018-03-25T09:14:42.161Z,18.08
2018-03-25T09:15:42.134Z,18.12
2018-03-25T09:16:42.117Z,18.17
2018-03-25T09:17:42.209Z,18.17
2018-03-25T09:18:42.138Z,18.19
2018-03-25T09:19:42.124Z,18.23
2018-03-25T09:20:42.157Z,18.25
2018-03-25T09:21:42.187Z,18.3
2018-03-25T09:22:42.106Z,18.32
2018-03-25T09:23:42.188Z,18.35
2018-03-25T09:24:42.129Z,18.39
2018-03-25T09:25:42.124Z,18.39
2018-03-25T09:26:42.102Z,18.42
2018-03-25T09:27:42.138Z,18.44
2018-03-25T09:28:42.139Z,18.49
2018-03-25T09:29:42.120Z,18.51
2018-03-25T09:30:42.121Z,18.51
2018-03-25T09:31:42.118Z,18.56
2018-03-25T09:32:42.106Z,18.57
2018-03-25T09:33:42.120Z,18.58
2018-03-25T09:34:42.114Z,18.62
2018-03-25T09:35:42.118Z,18.66
2018-03-25T09:36:42.078Z,18.65
2018-03-25T09:37:42.099Z,18.68
2018-03-25T09:38:42.102Z,18.68
2018-03-25T09:39:42.076Z,18.66
2018-03-25T09:40:42.079Z,18.7
2018-03-25T09:41:42.107Z,18.71
2018-03-25T09:42:42.099Z,18.7
2018-03-25T09:43:42.085Z,18.69
2018-03-25T09:44:42.112Z,18.74
2018-03-25T09:45:42.105Z,18.72
2018-03-25T09:46:42.072Z,18.74
2018-03-25T09:47:42.094Z,18.77
2018-03-25T09:48:42.132Z,18.76
2018-03-25T09:49:42.113Z,18.77
2018-03-25T09:50:42.091Z,18.81
2018-03-25T09:51:42.105Z,18.78
2018-03-25T09:52:42.236Z,18.81
2018-03-25T09:53:42.110Z,18.82
2018-03-25T09:54:42.114Z,18.82
2018-03-25T09:55:42.118Z,18.82
2018-03-25T09:56:42.105Z,18.84
2018-03-25T09:57:42.064Z,18.83
2018-03-25T09:58:42.564Z,18.84
2018-03-25T09:59:42.226Z,18.84
2018-03-25T10:00:42.112Z,18.86
2018-03-25T10:01:42.150Z,18.87
2018-03-25T10:02:42.160Z,18.89
2018-03-25T10:03:42.086Z,18.86
2018-03-25T10:04:42.658Z,18.88
2018-03-25T10:05:42.104Z,18.93
2018-03-25T10:06:42.141Z,18.87
2018-03-25T10:07:42.078Z,18.91
2018-03-25T10:08:42.099Z,18.93
2018-03-25T10:09:42.130Z,18.93
2018-03-25T10:10:42.064Z,18.94
2018-03-25T10:11:42.134Z,18.93
2018-03-25T10:12:42.101Z,18.92
2018-03-25T10:13:42.119Z,18.94
2018-03-25T10:14:42.245Z,18.96
2018-03-25T10:15:42.120Z,18.94
2018-03-25T10:16:42.214Z,18.97
2018-03-25T10:17:42.108Z,18.98
2018-03-25T10:18:42.165Z,18.98
2018-03-25T10:19:00.606Z,19.06
2018-03-25T10:19:46.889Z,19.1
2018-03-25T10:20:46.884Z,19.13
2018-03-25T10:21:46.893Z,19.15
2018-03-25T10:22:46.870Z,19.15
2018-03-25T10:23:46.880Z,19.17
2018-03-25T10:24:46.898Z,19.23
2018-03-25T10:25:46.910Z,19.21
2018-03-25T10:26:46.919Z,19.26
2018-03-25T10:27:47.037Z,19.27
2018-03-25T10:28:46.869Z,19.27
2018-03-25T10:29:46.901Z,19.32
2018-03-25T10:30:46.875Z,19.3
2018-03-25T10:31:46.860Z,19.32
2018-03-25T10:32:18.768Z,19.35
2018-03-25T10:33:18.882Z,19.33
2018-03-25T10:34:18.825Z,19.36
2018-03-25T10:35:18.794Z,19.36
2018-03-25T10:36:18.877Z,19.38
2018-03-25T10:37:18.827Z,19.38
2018-03-25T10:38:18.869Z,19.41
2018-03-25T10:39:18.828Z,19.41
2018-03-25T10:40:18.831Z,19.4
2018-03-25T10:40:59.110Z,19.43
2018-03-25T10:41:59.092Z,19.45
2018-03-25T10:42:59.087Z,19.42
2018-03-25T10:43:59.091Z,19.42
2018-03-25T10:44:59.126Z,19.45
2018-03-25T10:45:59.084Z,19.46
2018-03-25T10:46:59.111Z,19.45
2018-03-25T10:47:59.071Z,19.47
2018-03-25T10:48:59.081Z,19.44
2018-03-25T10:49:59.056Z,19.43
2018-03-25T10:50:59.093Z,19.47
2018-03-25T10:51:59.085Z,19.43
2018-03-25T10:52:59.105Z,19.45
2018-03-25T10:53:59.095Z,19.56
2018-03-25T10:54:59.094Z,19.54
2018-03-25T10:55:59.125Z,19.54
2018-03-25T10:56:59.106Z,19.54
2018-03-25T10:57:59.121Z,19.52
2018-03-25T10:58:59.095Z,19.54
2018-03-25T10:59:59.119Z,19.52
2018-03-25T11:00:59.103Z,19.52
2018-03-25T11:01:59.200Z,19.54
2018-03-25T11:02:59.242Z,19.56
2018-03-25T11:03:59.129Z,19.55
2018-03-25T11:04:59.194Z,19.52
2018-03-25T11:05:59.162Z,19.6
2018-03-25T11:10:24.646Z,19.6
2018-03-25T11:11:24.633Z,19.63
2018-03-25T11:12:03.262Z,19.65
2018-03-25T11:12:41.203Z,19.75
2018-03-25T11:13:41.256Z,19.67
2018-03-25T11:14:41.269Z,19.59
2018-03-25T11:15:41.300Z,19.58
2018-03-25T11:16:41.209Z,19.56
2018-03-25T11:17:41.236Z,19.53
2018-03-25T11:18:41.330Z,19.51
2018-03-25T11:19:41.246Z,19.46
2018-03-25T11:20:41.278Z,19.45
2018-03-25T11:21:41.218Z,19.42
2018-03-25T11:22:41.238Z,19.38
2018-03-25T11:23:41.247Z,19.38
2018-03-25T11:24:41.529Z,19.35
2018-03-25T11:25:41.183Z,19.32
2018-03-25T11:26:41.301Z,19.32
2018-03-25T11:27:41.303Z,19.3
2018-03-25T11:28:41.189Z,19.26
2018-03-25T11:29:41.214Z,19.28
2018-03-25T11:30:41.193Z,19.29
2018-03-25T11:31:41.201Z,19.26
2018-03-25T11:32:41.215Z,19.27
2018-03-25T11:33:41.179Z,19.24
2018-03-25T11:34:41.190Z,19.24
2018-03-25T11:35:41.217Z,19.23
2018-03-25T11:36:41.267Z,19.24
2018-03-25T11:37:41.208Z,19.21
2018-03-25T11:38:41.185Z,19.21
2018-03-25T11:39:41.199Z,19.22
2018-03-25T11:40:41.178Z,19.22
2018-03-25T11:41:41.179Z,19.21
2018-03-25T11:42:41.308Z,19.21
2018-03-25T11:43:41.328Z,19.22
2018-03-25T11:44:41.139Z,19.21
2018-03-25T11:45:41.172Z,19.23
2018-03-25T11:46:41.199Z,19.21
2018-03-25T11:47:41.177Z,19.22
2018-03-25T11:48:41.170Z,19.2
2018-03-25T11:49:41.198Z,19.2
2018-03-25T11:50:41.176Z,19.21
2018-03-25T11:51:41.283Z,19.22
2018-03-25T11:52:41.222Z,19.21
2018-03-25T11:53:41.187Z,19.18
2018-03-25T11:54:41.341Z,19.18
2018-03-25T11:55:41.199Z,19.17
2018-03-25T11:56:41.165Z,19.18
2018-03-25T11:57:41.234Z,19.2
2018-03-25T11:58:41.205Z,19.17
2018-03-25T11:59:41.210Z,19.18
2018-03-25T12:00:41.194Z,19.17
2018-03-25T12:01:41.194Z,19.17
2018-03-25T12:02:41.186Z,19.17
2018-03-25T12:03:41.196Z,19.16
2018-03-25T12:04:41.209Z,19.16
2018-03-25T12:05:41.198Z,19.18
2018-03-25T12:06:41.202Z,19.15
2018-03-25T12:07:41.486Z,19.13
2018-03-25T12:08:41.183Z,19.13
2018-03-25T12:09:41.204Z,19.16
2018-03-25T12:10:41.191Z,19.13
2018-03-25T12:11:41.158Z,19.14
2018-03-25T12:12:41.247Z,19.14
2018-03-25T12:13:41.216Z,19.13
2018-03-25T12:14:41.192Z,19.12
2018-03-25T12:15:41.190Z,19.13
2018-03-25T12:16:41.234Z,19.12
2018-03-25T12:17:41.197Z,19.14
2018-03-25T12:18:41.182Z,19.11
2018-03-25T12:19:41.187Z,19.11
2018-03-25T12:20:41.184Z,19.11
2018-03-25T12:21:41.264Z,19.11
2018-03-25T12:22:41.188Z,19.11
2018-03-25T12:23:41.214Z,19.11
2018-03-25T12:24:41.320Z,19.15
2018-03-25T12:25:41.189Z,19.12
2018-03-25T12:26:41.222Z,19.12
2018-03-25T12:27:41.228Z,19.11
2018-03-25T12:28:41.189Z,19.13
2018-03-25T12:29:41.200Z,19.13
2018-03-25T12:30:41.198Z,19.12
2018-03-25T12:31:41.155Z,19.13
2018-03-25T12:32:41.205Z,19.13
2018-03-25T12:33:41.195Z,19.13
2018-03-25T12:34:41.199Z,19.13
2018-03-25T12:35:41.205Z,19.12
2018-03-25T12:36:41.172Z,19.14
2018-03-25T12:37:41.155Z,19.14
2018-03-25T12:38:41.423Z,19.15
2018-03-25T12:39:41.242Z,19.13
2018-03-25T12:40:41.180Z,19.14
2018-03-25T12:41:41.226Z,19.16
2018-03-25T12:42:41.180Z,19.16
2018-03-25T12:43:41.217Z,19.16
2018-03-25T12:44:41.431Z,19.16
2018-03-25T12:45:41.188Z,19.14
2018-03-25T12:46:41.204Z,19.14
2018-03-25T12:47:41.204Z,19.16
2018-03-25T12:48:41.207Z,19.16
2018-03-25T12:49:41.184Z,19.16
2018-03-25T12:50:41.191Z,19.11
2018-03-25T12:51:41.178Z,19.11
2018-03-25T12:52:41.216Z,19.11
2018-03-25T12:53:41.185Z,19.1
2018-03-25T12:54:41.199Z,19.11
2018-03-25T12:55:41.281Z,19.1